Time;durP1;ratioP1;P1;durP2;ratioP2;P2;SDS_P1;SDS_P2;PMS_P1;PMS_P2;Temp;Humidity;BMP_temperature;BMP_pressure;BME280_temperature;BME280_humidity;BME280_pressure;Samples;Min_cycle;Max_cycle;Signal;HPM_P1;HPM_P2
2023/06/27 00:01:47;;;;;;;3.15;1.58;;;19.80;1.00;;;;;;7397252;19;20014;-70
2023/06/27 00:04:19;;;;;;;4.20;2.00;;;19.80;1.00;;;;;;7392695;19;20030;-70
2023/06/27 00:06:49;;;;;;;7.00;1.73;;;19.80;1.00;;;;;;7393146;19;20018;-70
2023/06/27 00:09:22;;;;;;;3.90;2.00;;;19.70;1.00;;;;;;7392960;19;20030;-70
2023/06/27 00:11:52;;;;;;;6.63;2.57;;;19.60;1.00;;;;;;7397140;19;20014;-70
2023/06/27 00:14:22;;;;;;;3.25;1.58;;;19.70;1.00;;;;;;7392132;19;20039;-70
2023/06/27 00:16:52;;;;;;;6.03;1.90;;;19.60;1.00;;;;;;7394050;19;20470;-70
2023/06/27 00:19:22;;;;;;;6.85;2.00;;;19.60;1.00;;;;;;7393402;19;20031;-70
2023/06/27 00:21:52;;;;;;;4.97;1.92;;;19.70;1.00;;;;;;7396467;19;20482;-70
2023/06/27 00:24:26;;;;;;;5.72;1.65;;;19.70;1.00;;;;;;7392670;19;20047;-70
2023/06/27 00:26:56;;;;;;;6.57;1.70;;;19.60;1.00;;;;;;7392071;19;20043;-70
2023/06/27 00:29:26;;;;;;;6.85;1.75;;;19.80;1.00;;;;;;7394829;19;20038;-70
2023/06/27 00:31:56;;;;;;;5.70;1.70;;;19.70;1.00;;;;;;7395460;19;20063;-70
2023/06/27 00:34:26;;;;;;;3.13;1.52;;;19.80;1.00;;;;;;7394387;19;20014;-70
2023/06/27 00:36:56;;;;;;;5.63;1.55;;;19.90;1.00;;;;;;7392340;19;20010;-70
2023/06/27 00:39:29;;;;;;;5.45;2.45;;;19.80;1.00;;;;;;7392044;19;20097;-70
2023/06/27 00:41:59;;;;;;;5.80;1.65;;;19.70;1.00;;;;;;7395701;19;20032;-70
2023/06/27 00:44:28;;;;;;;5.63;1.90;;;19.80;1.00;;;;;;7392496;19;20018;-70
2023/06/27 00:46:59;;;;;;;8.68;3.75;;;19.70;1.00;;;;;;7387948;19;20040;-70
2023/06/27 00:49:30;;;;;;;10.18;5.25;;;19.60;1.00;;;;;;7393173;19;20011;-70
2023/06/27 00:52:00;;;;;;;9.65;4.45;;;19.60;1.00;;;;;;7394302;19;20007;-70
2023/06/27 00:54:33;;;;;;;6.72;2.63;;;19.70;1.00;;;;;;7392256;19;20022;-70
2023/06/27 00:57:03;;;;;;;4.28;2.20;;;19.60;1.00;;;;;;7391100;19;20018;-71
2023/06/27 00:59:34;;;;;;;3.00;1.80;;;19.70;1.00;;;;;;7392105;19;20014;-71
2023/06/27 01:02:04;;;;;;;4.63;1.75;;;19.70;1.00;;;;;;7394338;19;20066;-70
2023/06/27 01:04:34;;;;;;;3.78;1.67;;;19.70;1.00;;;;;;7393522;19;20034;-70
2023/06/27 01:07:13;;;;;;;2.58;1.52;;;19.50;1.00;;;;;;7394182;19;20018;-70
2023/06/27 01:09:50;;;;;;;4.93;1.75;;;19.50;1.00;;;;;;7391787;19;20018;-70
2023/06/27 01:12:26;;;;;;;4.05;2.00;;;19.50;1.00;;;;;;7389927;19;20347;-70
2023/06/27 01:15:00;;;;;;;13.75;8.32;;;19.70;1.00;;;;;;7392224;19;20369;-70
2023/06/27 01:17:32;;;;;;;3.50;1.85;;;19.60;1.00;;;;;;7393009;19;20381;-70
2023/06/27 01:20:04;;;;;;;6.40;1.80;;;19.50;1.00;;;;;;7391640;19;20014;-70
2023/06/27 01:22:39;;;;;;;5.45;2.03;;;19.30;1.00;;;;;;7392935;19;20429;-70
2023/06/27 01:25:14;;;;;;;5.38;2.35;;;19.30;1.00;;;;;;7391825;19;20010;-70
2023/06/27 01:27:44;;;;;;;6.28;1.85;;;19.40;1.00;;;;;;7391471;19;20018;-70
2023/06/27 01:30:17;;;;;;;7.72;1.73;;;19.60;1.00;;;;;;7394434;19;20031;-70
2023/06/27 01:32:52;;;;;;;3.35;1.75;;;19.40;1.00;;;;;;7392998;19;20142;-70
2023/06/27 01:35:28;;;;;;;4.93;1.90;;;19.40;1.00;;;;;;7391947;19;20502;-71
2023/06/27 01:38:02;;;;;;;3.30;1.40;;;19.40;1.00;;;;;;7392099;19;20459;-70
2023/06/27 01:40:39;;;;;;;2.95;1.80;;;19.40;1.00;;;;;;7390708;19;20014;-70
2023/06/27 01:43:12;;;;;;;6.30;1.83;;;19.30;1.00;;;;;;7392649;19;20014;-70
2023/06/27 01:45:42;;;;;;;2.10;1.30;;;19.20;1.00;;;;;;7392075;19;20014;-69
2023/06/27 01:48:13;;;;;;;6.32;1.80;;;19.20;1.00;;;;;;7390120;19;20085;-69
2023/06/27 01:50:43;;;;;;;5.50;1.83;;;19.10;1.00;;;;;;7392875;19;20386;-70
2023/06/27 01:53:13;;;;;;;6.05;1.73;;;19.10;1.00;;;;;;7396120;19;20016;-70
2023/06/27 01:55:45;;;;;;;5.68;2.08;;;19.00;1.00;;;;;;7391407;19;20382;-70
2023/06/27 01:58:15;;;;;;;4.57;1.95;;;19.10;1.00;;;;;;7391674;19;20886;-70
2023/06/27 02:00:45;;;;;;;7.20;2.40;;;19.10;1.00;;;;;;7390291;19;20014;-69
2023/06/27 02:03:15;;;;;;;8.02;1.90;;;19.10;1.00;;;;;;7392360;19;20018;-70
2023/06/27 02:05:45;;;;;;;5.68;1.83;;;19.00;1.00;;;;;;7390862;19;20475;-69
2023/06/27 02:08:15;;;;;;;3.35;1.75;;;19.00;1.00;;;;;;7387033;19;20014;-70
2023/06/27 02:10:48;;;;;;;3.50;1.88;;;18.90;1.00;;;;;;7389982;19;20043;-69
2023/06/27 02:13:18;;;;;;;4.88;2.22;;;19.10;1.00;;;;;;7391055;19;20503;-70
2023/06/27 02:15:48;;;;;;;5.45;1.73;;;18.90;1.00;;;;;;7391547;19;20097;-69
2023/06/27 02:18:18;;;;;;;5.22;2.00;;;18.80;1.00;;;;;;7391055;19;20019;-70
2023/06/27 02:20:48;;;;;;;6.00;1.90;;;18.90;1.00;;;;;;7390380;19;20018;-70
2023/06/27 02:23:18;;;;;;;5.97;1.80;;;18.90;1.00;;;;;;7390628;19;20367;-70
2023/06/27 02:25:50;;;;;;;4.22;1.90;;;18.90;1.00;;;;;;7390518;19;20014;-69
2023/06/27 02:28:20;;;;;;;4.15;1.90;;;19.00;1.00;;;;;;7389690;19;20023;-69
2023/06/27 02:30:50;;;;;;;2.58;1.45;;;19.10;1.00;;;;;;7394359;19;20015;-70
2023/06/27 02:33:20;;;;;;;6.82;2.15;;;19.10;1.00;;;;;;7390941;19;20010;-70
2023/06/27 02:35:50;;;;;;;4.00;1.77;;;18.90;1.00;;;;;;7390205;19;20503;-70
2023/06/27 02:38:20;;;;;;;4.10;1.80;;;18.90;1.00;;;;;;7390542;19;20129;-70
2023/06/27 02:40:54;;;;;;;3.20;1.60;;;18.90;1.00;;;;;;7388833;19;20480;-70
2023/06/27 02:43:24;;;;;;;3.43;1.80;;;18.70;1.00;;;;;;7389625;19;20093;-70
2023/06/27 02:45:54;;;;;;;5.10;1.70;;;18.70;1.00;;;;;;7390353;19;20066;-70
2023/06/27 02:48:24;;;;;;;4.47;2.80;;;18.70;1.00;;;;;;7389110;19;20025;-71
2023/06/27 02:50:54;;;;;;;5.97;2.05;;;18.60;1.00;;;;;;7388709;19;20014;-70
2023/06/27 02:53:25;;;;;;;4.65;1.95;;;18.50;1.00;;;;;;7389486;19;20057;-70
2023/06/27 02:56:02;;;;;;;4.20;1.80;;;18.50;1.00;;;;;;7389946;19;20010;-69
2023/06/27 02:58:32;;;;;;;6.65;2.40;;;18.50;1.00;;;;;;7389588;19;20395;-70
2023/06/27 03:01:03;;;;;;;5.68;1.90;;;18.50;1.00;;;;;;7388302;19;20862;-70
2023/06/27 03:03:33;;;;;;;4.45;1.95;;;18.50;1.00;;;;;;7389065;19;20018;-70
2023/06/27 03:06:08;;;;;;;7.70;1.80;;;18.50;1.00;;;;;;7389486;19;20018;-70
2023/06/27 03:08:40;;;;;;;4.72;1.70;;;18.40;1.00;;;;;;7387892;19;20014;-70
2023/06/27 03:11:13;;;;;;;3.15;1.95;;;18.30;1.00;;;;;;7388142;19;20078;-70
2023/06/27 03:13:42;;;;;;;3.45;1.90;;;18.30;1.00;;;;;;7388920;19;20015;-70
2023/06/27 03:16:13;;;;;;;5.85;1.85;;;18.30;1.00;;;;;;7389562;19;20011;-70
2023/06/27 03:18:42;;;;;;;5.90;2.03;;;18.20;1.00;;;;;;7388517;19;20520;-71
2023/06/27 03:21:12;;;;;;;2.33;1.50;;;18.20;1.00;;;;;;7388153;19;20078;-70
2023/06/27 03:23:42;;;;;;;3.78;2.10;;;18.10;1.00;;;;;;7388680;19;20007;-70
2023/06/27 03:26:15;;;;;;;3.75;1.83;;;18.10;1.00;;;;;;7389156;19;20092;-69
2023/06/27 03:28:45;;;;;;;5.28;1.90;;;18.00;1.00;;;;;;7388078;19;20021;-70
2023/06/27 03:31:15;;;;;;;7.68;2.13;;;18.10;1.00;;;;;;7386838;19;20010;-70
2023/06/27 03:33:46;;;;;;;3.50;2.00;;;18.00;1.00;;;;;;7388446;19;20047;-70
2023/06/27 03:36:16;;;;;;;6.20;2.08;;;18.00;1.00;;;;;;7388907;19;20014;-70
2023/06/27 03:38:47;;;;;;;4.00;1.92;;;17.90;1.00;;;;;;7388529;19;20028;-69
2023/06/27 03:41:20;;;;;;;5.70;1.83;;;17.90;1.00;;;;;;7386972;19;20023;-70
2023/06/27 03:43:50;;;;;;;5.43;1.70;;;18.00;1.00;;;;;;7386663;19;20135;-69
2023/06/27 03:46:20;;;;;;;5.63;2.10;;;17.90;1.00;;;;;;7388446;19;20127;-70
2023/06/27 03:48:54;;;;;;;5.10;1.98;;;18.00;1.00;;;;;;7387118;19;20097;-70
2023/06/27 03:51:24;;;;;;;5.88;1.95;;;17.90;1.00;;;;;;7387211;19;20043;-70
2023/06/27 03:53:54;;;;;;;3.35;1.60;;;17.90;1.00;;;;;;7387655;19;20603;-70
2023/06/27 03:56:27;;;;;;;5.88;1.88;;;17.80;1.00;;;;;;7387815;19;20040;-70
2023/06/27 03:58:56;;;;;;;4.57;1.90;;;17.80;1.00;;;;;;7388110;19;20014;-69
2023/06/27 04:01:26;;;;;;;5.13;1.60;;;17.80;1.00;;;;;;7385282;19;20015;-70
2023/06/27 04:03:56;;;;;;;4.70;1.75;;;17.90;1.00;;;;;;7387612;19;20031;-69
2023/06/27 04:06:26;;;;;;;3.33;2.03;;;17.90;1.00;;;;;;7388061;19;20117;-70
2023/06/27 04:08:57;;;;;;;5.25;2.33;;;18.00;1.00;;;;;;7386659;19;20467;-69
2023/06/27 04:11:31;;;;;;;5.72;2.08;;;17.90;1.00;;;;;;7384079;19;20385;-70
2023/06/27 04:14:02;;;;;;;4.00;2.08;;;18.00;1.00;;;;;;7387495;19;20015;-70
2023/06/27 04:16:32;;;;;;;6.38;2.00;;;17.90;1.00;;;;;;7387983;19;20017;-70
2023/06/27 04:19:02;;;;;;;9.40;2.10;;;17.90;1.00;;;;;;7387455;19;20035;-70
2023/06/27 04:21:32;;;;;;;4.90;1.80;;;17.90;1.00;;;;;;7385385;19;20043;-70
2023/06/27 04:24:02;;;;;;;4.72;1.98;;;17.90;1.00;;;;;;7386973;19;20066;-70
2023/06/27 04:26:35;;;;;;;5.70;2.00;;;17.90;1.00;;;;;;7386905;19;20018;-70
2023/06/27 04:29:04;;;;;;;5.35;1.67;;;17.80;1.00;;;;;;7386932;19;20030;-70
2023/06/27 04:31:34;;;;;;;5.38;1.77;;;17.80;1.00;;;;;;7389168;19;20014;-70
2023/06/27 04:34:05;;;;;;;11.18;2.70;;;17.80;1.00;;;;;;7394136;19;20046;-70
2023/06/27 04:36:36;;;;;;;4.22;1.90;;;17.80;1.00;;;;;;7394630;19;20015;-70
2023/06/27 04:39:06;;;;;;;4.85;1.95;;;17.80;1.00;;;;;;7393919;19;20007;-70
2023/06/27 04:41:39;;;;;;;4.30;1.40;;;17.80;1.00;;;;;;7391252;19;20038;-69
2023/06/27 04:44:09;;;;;;;8.60;1.73;;;17.90;1.00;;;;;;7394033;19;20011;-70
2023/06/27 04:46:40;;;;;;;5.10;2.03;;;17.90;1.00;;;;;;7394285;19;20014;-70
2023/06/27 04:49:10;;;;;;;7.78;2.13;;;17.80;1.00;;;;;;7392468;19;20018;-70
2023/06/27 04:51:40;;;;;;;3.40;1.80;;;17.90;1.00;;;;;;7393177;19;20081;-71
2023/06/27 04:54:10;;;;;;;4.63;2.00;;;18.00;1.00;;;;;;7395300;19;20027;-70
2023/06/27 04:56:42;;;;;;;4.63;2.10;;;18.00;1.00;;;;;;7391681;19;20479;-70
2023/06/27 04:59:13;;;;;;;5.10;1.80;;;17.90;1.00;;;;;;7394108;19;20095;-70
2023/06/27 05:01:42;;;;;;;3.88;1.92;;;17.90;1.00;;;;;;7393450;19;20018;-70
2023/06/27 05:04:12;;;;;;;6.18;2.33;;;17.90;1.00;;;;;;7393265;19;20408;-71
2023/06/27 05:06:42;;;;;;;3.85;1.80;;;17.80;1.00;;;;;;7393820;19;20514;-70
2023/06/27 05:09:12;;;;;;;6.35;2.03;;;17.90;1.00;;;;;;7391846;19;20031;-70
2023/06/27 05:11:45;;;;;;;7.28;2.22;;;18.00;1.00;;;;;;7392360;19;20018;-71
2023/06/27 05:14:15;;;;;;;6.75;2.17;;;18.00;1.00;;;;;;7392097;19;20014;-71
2023/06/27 05:16:45;;;;;;;4.47;1.75;;;18.10;1.00;;;;;;7392809;19;20053;-71
2023/06/27 05:19:15;;;;;;;7.18;2.03;;;18.30;1.00;;;;;;7392193;19;20089;-70
2023/06/27 05:21:45;;;;;;;5.93;1.98;;;18.30;1.00;;;;;;7393206;19;20035;-70
2023/06/27 05:24:15;;;;;;;4.95;1.63;;;18.20;1.00;;;;;;7392216;19;20039;-70
2023/06/27 05:26:47;;;;;;;5.55;1.60;;;18.30;1.00;;;;;;7392114;19;20039;-70
2023/06/27 05:29:17;;;;;;;6.60;2.00;;;18.10;1.00;;;;;;7391431;19;20125;-70
2023/06/27 05:31:47;;;;;;;3.47;1.92;;;18.40;1.00;;;;;;7391967;19;20126;-70
2023/06/27 05:34:17;;;;;;;4.70;2.22;;;18.40;1.00;;;;;;7391629;19;20020;-70
2023/06/27 05:36:47;;;;;;;7.10;2.88;;;18.60;1.00;;;;;;7391837;19;20408;-70
2023/06/27 05:39:17;;;;;;;4.03;1.70;;;18.80;1.00;;;;;;7390067;19;20372;-70
2023/06/27 05:41:49;;;;;;;6.65;2.15;;;19.00;1.00;;;;;;7390146;19;20015;-71
2023/06/27 05:44:19;;;;;;;5.15;1.60;;;19.00;1.00;;;;;;7389301;19;20014;-71
2023/06/27 05:46:49;;;;;;;7.80;2.00;;;19.00;1.00;;;;;;7389650;19;20026;-69
2023/06/27 05:49:19;;;;;;;3.83;2.00;;;19.00;1.00;;;;;;7390789;19;20014;-70
2023/06/27 05:51:49;;;;;;;6.45;2.03;;;19.30;1.00;;;;;;7391416;19;20010;-71
2023/06/27 05:54:19;;;;;;;4.90;1.75;;;20.40;1.00;;;;;;7391163;19;20344;-71
2023/06/27 05:56:52;;;;;;;4.47;1.90;;;20.90;1.00;;;;;;7389447;19;20371;-70
2023/06/27 05:59:22;;;;;;;7.22;1.75;;;20.60;1.00;;;;;;7390816;19;20010;-70
2023/06/27 06:01:52;;;;;;;3.90;1.70;;;20.20;1.00;;;;;;7390605;19;20094;-71
2023/06/27 06:04:22;;;;;;;5.68;1.73;;;20.00;1.00;;;;;;7389953;19;20021;-71
2023/06/27 06:06:52;;;;;;;4.88;1.70;;;20.20;1.00;;;;;;7390687;19;20011;-69
2023/06/27 06:09:22;;;;;;;4.13;1.75;;;20.30;1.00;;;;;;7389413;19;20050;-71
2023/06/27 06:11:54;;;;;;;4.43;1.40;;;20.20;1.00;;;;;;7390369;19;20010;-70
2023/06/27 06:14:24;;;;;;;5.72;2.30;;;20.20;1.00;;;;;;7390361;19;20043;-70
2023/06/27 06:16:55;;;;;;;7.00;1.88;;;20.00;1.00;;;;;;7388085;19;20421;-70
2023/06/27 06:19:25;;;;;;;3.30;1.60;;;19.60;1.00;;;;;;7390002;19;20010;-71
2023/06/27 06:21:55;;;;;;;7.60;1.90;;;20.00;1.00;;;;;;7389792;19;20014;-71
2023/06/27 06:24:27;;;;;;;4.88;1.70;;;19.80;1.00;;;;;;7389118;19;20011;-69
2023/06/27 06:26:59;;;;;;;6.90;1.83;;;19.90;1.00;;;;;;7390190;19;20022;-70
2023/06/27 06:29:29;;;;;;;2.45;1.38;;;20.00;1.00;;;;;;7390669;19;20097;-71
2023/06/27 06:31:59;;;;;;;4.50;1.80;;;19.50;1.00;;;;;;7389926;19;20438;-71
2023/06/27 06:34:29;;;;;;;3.65;1.95;;;19.70;1.00;;;;;;7389683;19;20034;-71
2023/06/27 06:36:59;;;;;;;4.47;1.63;;;20.00;1.00;;;;;;7389500;19;20011;-70
2023/06/27 06:39:29;;;;;;;7.78;1.80;;;20.10;1.00;;;;;;7389084;19;20042;-71
2023/06/27 06:42:02;;;;;;;4.63;1.40;;;20.50;1.00;;;;;;7389355;19;20086;-70
2023/06/27 06:44:32;;;;;;;4.70;1.70;;;21.00;1.00;;;;;;7389423;19;20047;-70
2023/06/27 06:47:02;;;;;;;5.90;1.90;;;21.00;1.00;;;;;;7389211;19;20022;-71
2023/06/27 06:49:32;;;;;;;4.13;1.40;;;20.90;1.00;;;;;;7387180;19;20031;-71
2023/06/27 06:52:02;;;;;;;3.70;1.77;;;21.00;1.00;;;;;;7389221;19;20015;-71
2023/06/27 06:54:32;;;;;;;3.45;1.38;;;21.10;1.00;;;;;;7387316;19;20494;-70
2023/06/27 06:57:10;;;;;;;4.50;1.38;;;21.00;1.00;;;;;;7388885;19;20041;-71
2023/06/27 06:59:40;;;;;;;1.90;1.17;;;21.20;1.00;;;;;;7389052;19;20011;-71
2023/06/27 07:02:10;;;;;;;2.40;1.20;;;21.30;1.00;;;;;;7388807;19;20022;-71
2023/06/27 07:04:40;;;;;;;4.00;1.42;;;21.70;1.00;;;;;;7389097;19;20011;-70
2023/06/27 07:07:10;;;;;;;2.42;1.38;;;21.20;1.00;;;;;;7388768;19;20021;-70
2023/06/27 07:09:40;;;;;;;2.50;1.48;;;21.00;1.00;;;;;;7388318;19;20056;-71
2023/06/27 07:12:12;;;;;;;3.97;1.38;;;21.10;1.00;;;;;;7389041;19;20066;-70
2023/06/27 07:14:42;;;;;;;4.00;1.50;;;21.10;1.00;;;;;;7388403;19;20015;-70
2023/06/27 07:17:12;;;;;;;4.38;1.58;;;21.10;1.00;;;;;;7388054;19;20286;-71
2023/06/27 07:19:43;;;;;;;5.72;1.48;;;21.00;1.00;;;;;;7387941;19;20013;-71
2023/06/27 07:22:13;;;;;;;3.78;1.58;;;20.80;1.00;;;;;;7388684;19;20052;-70
2023/06/27 07:24:43;;;;;;;4.32;1.52;;;21.10;1.00;;;;;;7388440;19;20042;-70
2023/06/27 07:27:16;;;;;;;5.85;1.35;;;21.20;1.00;;;;;;7388516;19;20018;-71
2023/06/27 07:29:46;;;;;;;3.63;1.50;;;21.20;1.00;;;;;;7389382;19;20079;-71
2023/06/27 07:32:17;;;;;;;3.28;1.73;;;20.80;1.00;;;;;;7385477;19;20070;-71
2023/06/27 07:34:47;;;;;;;5.97;1.85;;;20.70;1.00;;;;;;7386564;19;20006;-70
2023/06/27 07:37:17;;;;;;;4.50;1.55;;;21.30;1.00;;;;;;7387795;19;20623;-70
2023/06/27 07:39:47;;;;;;;4.82;1.58;;;21.30;1.00;;;;;;7386126;19;20627;-71
2023/06/27 07:42:20;;;;;;;3.40;1.65;;;21.60;1.00;;;;;;7386697;19;20046;-70
2023/06/27 07:44:50;;;;;;;2.72;1.40;;;21.50;1.00;;;;;;7386973;19;20497;-71
2023/06/27 07:47:20;;;;;;;3.97;1.30;;;21.50;1.00;;;;;;7387539;19;20077;-72
2023/06/27 07:49:50;;;;;;;5.45;1.42;;;21.10;1.00;;;;;;7384355;19;20022;-70
2023/06/27 07:52:20;;;;;;;4.20;1.80;;;21.10;1.00;;;;;;7385305;19;20011;-71
2023/06/27 07:54:49;;;;;;;2.25;1.48;;;21.50;1.00;;;;;;7385713;19;20014;-70
2023/06/27 07:57:22;;;;;;;2.05;1.40;;;21.10;1.00;;;;;;7387025;19;20039;-71
2023/06/27 07:59:52;;;;;;;5.60;1.88;;;20.70;1.00;;;;;;7385932;19;20022;-72
2023/06/27 08:02:22;;;;;;;5.78;1.42;;;20.80;1.00;;;;;;7385781;19;20553;-72
2023/06/27 08:04:52;;;;;;;3.47;1.75;;;21.50;1.00;;;;;;7386367;19;20018;-71
2023/06/27 08:07:22;;;;;;;5.65;1.38;;;21.50;1.00;;;;;;7393510;19;20010;-72
2023/06/27 08:09:52;;;;;;;2.63;1.50;;;21.90;1.00;;;;;;7394140;19;20029;-70
2023/06/27 08:12:24;;;;;;;4.40;1.50;;;21.40;1.00;;;;;;7391793;19;20027;-71
2023/06/27 08:14:54;;;;;;;4.97;1.60;;;21.90;1.00;;;;;;7393905;19;20014;-71
2023/06/27 08:17:24;;;;;;;3.85;1.30;;;22.30;1.00;;;;;;7394575;19;20014;-71
2023/06/27 08:19:54;;;;;;;5.28;1.88;;;22.20;1.00;;;;;;7392658;19;20356;-71
2023/06/27 08:22:25;;;;;;;2.65;1.65;;;21.80;1.00;;;;;;7392306;19;20031;-70
2023/06/27 08:24:55;;;;;;;3.40;1.63;;;22.20;1.00;;;;;;7393272;19;20018;-72
2023/06/27 08:27:27;;;;;;;4.43;1.60;;;21.90;1.00;;;;;;7393018;19;20787;-71
2023/06/27 08:29:57;;;;;;;3.13;1.27;;;21.50;1.00;;;;;;7394135;19;20018;-70
2023/06/27 08:32:27;;;;;;;4.80;1.50;;;22.00;1.00;;;;;;7389306;19;20022;-71
2023/06/27 08:34:58;;;;;;;3.00;1.50;;;21.90;1.00;;;;;;7392645;19;20067;-71
2023/06/27 08:37:28;;;;;;;2.95;1.50;;;21.90;1.00;;;;;;7392448;19;20039;-71
2023/06/27 08:39:58;;;;;;;6.25;1.52;;;22.10;1.00;;;;;;7391890;19;20086;-72
2023/06/27 08:42:32;;;;;;;6.43;1.52;;;22.30;1.00;;;;;;7392236;19;20007;-71
2023/06/27 08:45:02;;;;;;;8.05;1.70;;;22.40;1.00;;;;;;7391948;19;20483;-72
2023/06/27 08:47:34;;;;;;;2.75;1.50;;;21.80;1.00;;;;;;7392382;19;20015;-72
2023/06/27 08:50:06;;;;;;;4.55;1.50;;;21.70;1.00;;;;;;7392360;19;20018;-71
2023/06/27 08:52:40;;;;;;;7.63;1.58;;;21.50;1.00;;;;;;7391510;19;20037;-71
2023/06/27 08:55:16;;;;;;;5.53;1.73;;;21.70;1.00;;;;;;7393444;19;20014;-71
2023/06/27 08:57:49;;;;;;;5.13;1.30;;;21.50;1.00;;;;;;7393236;19;20025;-71
2023/06/27 09:00:22;;;;;;;2.85;1.35;;;22.00;1.00;;;;;;7392235;19;20011;-73
2023/06/27 09:02:52;;;;;;;3.63;1.30;;;21.90;1.00;;;;;;7392878;19;20403;-71
2023/06/27 09:05:22;;;;;;;3.72;1.48;;;21.90;1.00;;;;;;7392786;19;20647;-72
2023/06/27 09:07:52;;;;;;;4.63;1.40;;;21.70;1.00;;;;;;7392691;19;20011;-71
2023/06/27 09:10:23;;;;;;;3.65;1.20;;;21.90;1.00;;;;;;7390966;19;20039;-71
2023/06/27 09:12:56;;;;;;;3.03;1.40;;;21.70;1.00;;;;;;7387230;19;20348;-71
2023/06/27 09:15:26;;;;;;;2.60;1.10;;;22.20;1.00;;;;;;7392449;19;20010;-70
2023/06/27 09:17:56;;;;;;;9.10;2.35;;;22.20;1.00;;;;;;7391243;19;20014;-72
2023/06/27 09:20:27;;;;;;;4.95;1.75;;;22.20;1.00;;;;;;7390349;19;20042;-71
2023/06/27 09:22:58;;;;;;;4.90;1.55;;;21.60;1.00;;;;;;7389474;19;20014;-71
2023/06/27 09:25:28;;;;;;;7.53;1.65;;;22.60;1.00;;;;;;7391499;19;20007;-71
2023/06/27 09:28:04;;;;;;;3.17;1.52;;;23.30;1.00;;;;;;7391818;19;20018;-71
2023/06/27 09:30:34;;;;;;;5.97;1.63;;;23.00;1.00;;;;;;7394385;19;20010;-71
2023/06/27 09:33:04;;;;;;;4.03;1.52;;;23.40;1.00;;;;;;7389757;19;20018;-71
2023/06/27 09:35:34;;;;;;;4.93;2.10;;;22.10;1.00;;;;;;7391893;19;20043;-71
2023/06/27 09:38:24;;;;;;;5.07;1.60;;;21.80;1.00;;;;;;7391782;19;20361;-71
2023/06/27 09:41:04;;;;;;;7.05;1.90;;;22.00;1.00;;;;;;7390075;19;20466;-72
2023/06/27 09:43:37;;;;;;;4.82;1.50;;;22.40;1.00;;;;;;7390989;19;20010;-70
2023/06/27 09:46:08;;;;;;;5.07;1.98;;;22.00;1.00;;;;;;7391329;19;20427;-71
2023/06/27 09:48:39;;;;;;;6.47;1.75;;;21.90;1.00;;;;;;7390954;19;20046;-71
2023/06/27 09:51:09;;;;;;;5.65;1.80;;;22.70;1.00;;;;;;7389182;19;20080;-71
2023/06/27 09:53:39;;;;;;;4.95;1.90;;;23.80;1.00;;;;;;7388264;19;20006;-71
2023/06/27 09:56:09;;;;;;;4.05;1.60;;;23.20;1.00;;;;;;7389744;19;20040;-71
2023/06/27 09:58:41;;;;;;;6.25;1.67;;;23.40;1.00;;;;;;7394669;19;20010;-71
2023/06/27 10:01:11;;;;;;;3.33;1.35;;;23.60;1.00;;;;;;7393253;19;20003;-71
2023/06/27 10:03:48;;;;;;;4.30;1.55;;;23.00;1.00;;;;;;7393301;19;20686;-70
2023/06/27 10:06:18;;;;;;;6.53;1.80;;;22.60;1.00;;;;;;7395039;19;20018;-70
2023/06/27 10:08:49;;;;;;;4.20;1.88;;;22.80;1.00;;;;;;7390059;19;20039;-71
2023/06/27 10:11:19;;;;;;;3.70;1.77;;;22.70;1.00;;;;;;7388667;19;20014;-69
2023/06/27 10:13:52;;;;;;;2.53;1.50;;;22.50;1.00;;;;;;7388331;19;20015;-71
2023/06/27 10:16:23;;;;;;;5.93;1.90;;;22.70;1.00;;;;;;7390485;19;20455;-71
2023/06/27 10:18:53;;;;;;;6.00;1.77;;;22.80;1.00;;;;;;7389404;19;20077;-71
2023/06/27 10:21:23;;;;;;;25.88;16.20;;;22.50;1.00;;;;;;7388393;19;20022;-70
2023/06/27 10:23:58;;;;;;;4.00;1.80;;;23.10;1.00;;;;;;7388683;19;20027;-71
2023/06/27 10:26:29;;;;;;;2.78;1.30;;;22.60;1.00;;;;;;7392428;19;20014;-70
2023/06/27 10:29:04;;;;;;;4.85;1.58;;;22.80;1.00;;;;;;7387836;19;20018;-71
2023/06/27 10:31:42;;;;;;;3.90;1.20;;;23.30;1.00;;;;;;7388096;19;20070;-71
2023/06/27 10:34:18;;;;;;;3.90;1.70;;;23.20;1.00;;;;;;7393563;19;20105;-71
2023/06/27 10:37:02;;;;;;;2.22;1.50;;;23.40;1.00;;;;;;7393065;19;20364;-72
2023/06/27 10:39:33;;;;;;;3.28;1.70;;;24.10;1.00;;;;;;7388277;19;20455;-71
2023/06/27 10:42:07;;;;;;;1.95;1.27;;;23.30;1.00;;;;;;7389407;19;20022;-72
2023/06/27 10:45:02;;;;;;;4.97;1.75;;;24.10;1.00;;;;;;7390887;19;20078;-71
2023/06/27 10:47:38;;;;;;;2.38;1.35;;;23.00;1.00;;;;;;7389815;19;20563;-70
2023/06/27 10:50:12;;;;;;;6.85;1.50;;;23.40;1.00;;;;;;7387961;19;20353;-72
2023/06/27 10:52:43;;;;;;;3.85;1.70;;;23.70;1.00;;;;;;7388525;19;20043;-70
2023/06/27 10:55:24;;;;;;;5.03;1.80;;;23.50;1.00;;;;;;7387308;19;20347;-71
2023/06/27 10:58:02;;;;;;;3.90;1.70;;;23.50;1.00;;;;;;7388907;19;20043;-72
2023/06/27 11:00:37;;;;;;;3.28;1.52;;;23.20;1.00;;;;;;7387286;19;20040;-72
2023/06/27 11:03:07;;;;;;;2.45;1.45;;;23.40;1.00;;;;;;7388496;19;20074;-72
2023/06/27 11:05:45;;;;;;;2.90;1.23;;;22.80;1.00;;;;;;7387504;19;20426;-72
2023/06/27 11:08:17;;;;;;;2.20;1.48;;;23.90;1.00;;;;;;7388523;19;20018;-72
2023/06/27 11:11:03;;;;;;;2.78;1.27;;;23.80;1.00;;;;;;7389441;19;20006;-71
2023/06/27 11:13:36;;;;;;;3.85;1.40;;;22.80;1.00;;;;;;7391309;19;20014;-71
2023/06/27 11:16:11;;;;;;;5.20;1.50;;;22.90;1.00;;;;;;7386040;19;20085;-71
2023/06/27 11:18:41;;;;;;;5.07;1.85;;;22.80;1.00;;;;;;7391670;19;20413;-72
2023/06/27 11:21:11;;;;;;;3.92;1.30;;;23.00;1.00;;;;;;7386068;19;20495;-71
2023/06/27 11:23:45;;;;;;;3.17;1.30;;;23.30;1.00;;;;;;7391639;19;20047;-73
2023/06/27 11:26:15;;;;;;;3.10;1.80;;;23.50;1.00;;;;;;7387744;19;20067;-74
2023/06/27 11:28:45;;;;;;;3.67;1.70;;;23.10;1.00;;;;;;7388398;19;20409;-73
2023/06/27 11:31:18;;;;;;;2.92;1.55;;;23.00;1.00;;;;;;7385753;19;20014;-73
2023/06/27 11:33:56;;;;;;;5.00;1.70;;;23.10;1.00;;;;;;7386023;19;20036;-74
2023/06/27 11:36:26;;;;;;;2.38;1.50;;;22.90;1.00;;;;;;7388110;19;20019;-74
2023/06/27 11:38:56;;;;;;;5.80;1.58;;;23.20;1.00;;;;;;7385540;19;20107;-74
2023/06/27 11:41:26;;;;;;;5.85;1.70;;;23.20;1.00;;;;;;7389877;19;20384;-71
2023/06/27 11:43:58;;;;;;;4.10;1.75;;;23.20;1.00;;;;;;7394924;19;20474;-74
2023/06/27 11:46:30;;;;;;;5.68;2.65;;;23.80;1.00;;;;;;7397948;19;20014;-74
2023/06/27 11:49:02;;;;;;;3.00;1.48;;;23.80;1.00;;;;;;7395166;19;20523;-74
2023/06/27 11:51:40;;;;;;;2.38;1.35;;;23.80;1.00;;;;;;7394285;19;20018;-73
2023/06/27 11:54:11;;;;;;;2.05;1.42;;;23.90;1.00;;;;;;7396728;19;20007;-74
2023/06/27 11:56:41;;;;;;;5.10;1.67;;;23.40;1.00;;;;;;7399972;19;20017;-73
2023/06/27 11:59:13;;;;;;;2.10;1.30;;;23.50;1.00;;;;;;7394845;19;20014;-73
2023/06/27 12:01:47;;;;;;;3.78;1.52;;;23.80;1.00;;;;;;7395231;19;20127;-72
2023/06/27 12:04:19;;;;;;;7.32;1.60;;;23.80;1.00;;;;;;7394597;19;20014;-72
2023/06/27 12:06:49;;;;;;;3.55;1.23;;;24.00;1.00;;;;;;7394621;19;20478;-74
2023/06/27 12:09:24;;;;;;;3.28;1.50;;;24.30;1.00;;;;;;7395744;19;20130;-71
2023/06/27 12:11:56;;;;;;;2.95;1.30;;;24.30;1.00;;;;;;7398413;19;20020;-74
2023/06/27 12:14:28;;;;;;;3.90;1.73;;;24.60;1.00;;;;;;7395082;19;20025;-72
2023/06/27 12:17:03;;;;;;;2.38;1.70;;;23.60;1.00;;;;;;7395129;19;20018;-71
2023/06/27 12:19:33;;;;;;;3.92;1.52;;;23.80;1.00;;;;;;7389411;19;20031;-70
2023/06/27 12:22:03;;;;;;;3.55;1.58;;;24.70;1.00;;;;;;7389807;19;20010;-71
2023/06/27 12:24:33;;;;;;;3.88;1.60;;;24.40;1.00;;;;;;7394075;19;20015;-71
2023/06/27 12:27:03;;;;;;;3.78;1.45;;;24.30;1.00;;;;;;7395529;19;20006;-72
2023/06/27 12:29:33;;;;;;;3.78;1.80;;;24.10;1.00;;;;;;7393061;19;20022;-72
2023/06/27 12:32:06;;;;;;;3.67;1.50;;;23.50;1.00;;;;;;7397927;19;20073;-71
2023/06/27 12:34:36;;;;;;;3.58;1.92;;;23.60;1.00;;;;;;7395919;19;20011;-71
2023/06/27 12:37:06;;;;;;;4.07;1.80;;;24.50;1.00;;;;;;7393613;19;20031;-72
2023/06/27 12:39:36;;;;;;;6.15;1.70;;;24.80;1.00;;;;;;7396180;19;20014;-72
2023/06/27 12:42:06;;;;;;;6.07;1.92;;;24.40;1.00;;;;;;7396639;19;20494;-73
2023/06/27 12:44:36;;;;;;;2.97;1.60;;;24.20;1.00;;;;;;7393422;19;20010;-70
2023/06/27 12:47:09;;;;;;;3.90;1.95;;;23.30;1.00;;;;;;7397331;19;20018;-71
2023/06/27 12:49:40;;;;;;;6.32;2.72;;;24.10;1.00;;;;;;7396636;19;20031;-72
2023/06/27 12:52:10;;;;;;;7.65;1.63;;;23.80;1.00;;;;;;7391248;19;20031;-71
2023/06/27 12:54:40;;;;;;;3.58;1.60;;;24.40;1.00;;;;;;7390393;19;20089;-72
2023/06/27 12:57:10;;;;;;;2.60;1.45;;;23.90;1.00;;;;;;7392534;19;20046;-73
2023/06/27 12:59:40;;;;;;;3.03;1.42;;;24.00;1.00;;;;;;7392115;19;20035;-72
2023/06/27 13:02:15;;;;;;;4.30;1.75;;;24.30;1.00;;;;;;7392645;19;20039;-71
2023/06/27 13:04:45;;;;;;;3.42;1.63;;;24.00;1.00;;;;;;7391677;19;20006;-73
2023/06/27 13:07:14;;;;;;;4.88;1.75;;;24.20;1.00;;;;;;7391880;19;20015;-72
2023/06/27 13:09:45;;;;;;;3.90;1.80;;;24.70;1.00;;;;;;7396051;19;20050;-72
2023/06/27 13:12:15;;;;;;;5.75;2.03;;;24.30;1.00;;;;;;7391615;19;20511;-72
2023/06/27 13:14:44;;;;;;;3.63;1.70;;;24.30;1.00;;;;;;7390821;19;20495;-72
2023/06/27 13:17:17;;;;;;;1.95;1.40;;;24.30;1.00;;;;;;7392330;19;20025;-73
2023/06/27 13:19:49;;;;;;;4.25;1.48;;;24.20;1.00;;;;;;7391597;19;20019;-75